Des Moines International Airport
KDSM : now visible

Airfield :











YOU CAN JOIN US ON...

 
LOGIN :

Register | Disclaimer

   EN    FR    IT 

 









Legend :    VFR   Marginal VFR   IFR   Intensive IFR   Very Intensive IFR
Visi :
Ceiling :
>= 8 km
>= 3000ft
5 to 8 km
1000 to 3000 ft
1500m to 5 km
500 to 1000 ft
800 to 1500m
200 to 500 ft
< 800m
< 200 ft
Symbols :   Thunderstorms  Fog  Heavy snow  Heavy precipitations  Wind > 20 kt






- Airport Elevation : 958 ft
- IATA code : DSM


KDSM - Des Moines International

CURRENT METAR :
  • 152302Z 34009KT 10SM FEW016 BKN029 OVC041 02/M01 A2966 RMK AO2 T00171011

EXPIRED METARs :
  • 152254Z 34014KT 10SM SCT025 BKN030 OVC040 02/M01 A2965 RMK AO2 SLP049 T00171011
  • 152227Z 33011KT 10SM FEW016 BKN033 OVC065 02/M01 A2963 RMK AO2 T00171011
  • 152154Z 36012KT 10SM SCT016 BKN023 OVC043 02/M01 A2962 RMK AO2 RAB01E14DZB14E21SNE33 SLP039 P0000 T00171011
  • 152138Z 36012G21KT 10SM SCT013 BKN023 OVC045 02/M01 A2961 RMK AO2 RAB01E14DZB14E21SNE33 P0000 T00171011
  • 152115Z 35009G22KT 7SM -DZSN SCT008 OVC014 01/M01 A2959 RMK AO2 RAB01E14DZB14 P0000 T00111006
  • 152101Z 35013G20KT 2SM -RASN BR OVC010 01/M01 A2958 RMK AO2 RAB01 CIG 009V013 P0000 T00111011
  • 152023Z 36011KT 10SM R31/4000VP6000FT -SN BKN012 OVC018 01/M01 A2955 RMK AO2 P0000 T00111011
  • 152013Z 36011G19KT 1SM R31/6000VP6000FT -SN BKN014 OVC020 01/M02 A2954 RMK AO2 TWR VIS 3 P0000 T00111017

TAF KDSM
Valid from the 15 at 18:00 until the 16 at 18:00 UTC


151736Z 1518/1618 36014G21KT P6SM VCSH BKN010 OVC018
TEMPO 1518/1521 4SM -RASN BKN009
FM160100 34014G20KT P6SM VCSH BKN008 OVC016
FM160500 33015G21KT P6SM OVC008
KZMP FIR / North America



MET'MAP, your aeronautical weather chart ! - Copyright ORBIFLY December 2007 - Disclaimer

ORBIFLY MET'MAP TEAM :

Programming & Development : Alexandra Zaïnal
Concept & original design : Baudouin d'Aumeries
Assistance for programming : Marc-Olivier Méhu
Technical & hardware support : Manuel Goepfert

Contact : metmap@orbifly.com




SOURCES & CREDITS :

   NOAA       Earth
Advisory